createdAt,value
2018-07-12T00:01:50.105Z,51.40
2018-07-12T00:04:17.470Z,51.70
2018-07-12T00:06:44.732Z,51.80
2018-07-12T00:11:39.860Z,51.70
2018-07-12T00:14:07.223Z,51.90
2018-07-12T00:19:02.085Z,52.10
2018-07-12T00:21:29.336Z,51.80
2018-07-12T00:26:24.215Z,51.70
2018-07-12T00:28:51.524Z,51.50
2018-07-12T00:31:18.886Z,51.40
2018-07-12T00:33:46.174Z,51.90
2018-07-12T00:36:13.397Z,51.70
2018-07-12T00:38:40.799Z,51.90
2018-07-12T00:46:03.682Z,51.90
2018-07-12T00:48:30.974Z,52.10
2018-07-12T00:50:58.290Z,52.00
2018-07-12T00:53:25.669Z,52.00
2018-07-12T00:55:52.914Z,52.00
2018-07-12T00:58:20.178Z,52.20
2018-07-12T01:00:47.414Z,52.90
2018-07-12T01:03:14.720Z,52.40
2018-07-12T01:05:41.995Z,52.20
2018-07-12T01:08:09.336Z,52.40
2018-07-12T01:10:36.648Z,52.50
2018-07-12T01:13:03.911Z,52.50
2018-07-12T01:15:31.190Z,52.40
2018-07-12T01:17:58.450Z,52.70
2018-07-12T01:20:25.780Z,52.70
2018-07-12T01:22:53.151Z,52.60
2018-07-12T01:25:20.403Z,52.90
2018-07-12T01:27:47.712Z,52.60
2018-07-12T01:30:15.007Z,53.10
2018-07-12T01:32:42.268Z,52.70
2018-07-12T01:35:09.774Z,52.60
2018-07-12T01:37:37.110Z,52.80
2018-07-12T01:40:04.402Z,52.70
2018-07-12T01:42:31.716Z,53.30
2018-07-12T01:44:59.023Z,53.10
2018-07-12T01:47:26.465Z,53.00
2018-07-12T01:49:53.777Z,53.00
2018-07-12T01:52:21.346Z,53.20
2018-07-12T01:57:16.161Z,53.00
2018-07-12T01:59:43.464Z,53.30
2018-07-12T02:02:10.875Z,53.20
2018-07-12T02:04:38.312Z,53.50
2018-07-12T02:07:05.687Z,53.20
2018-07-12T02:09:32.979Z,53.20
2018-07-12T02:12:00.347Z,53.30
2018-07-12T02:14:28.179Z,53.30
2018-07-12T02:16:55.489Z,53.50
2018-07-12T02:19:22.748Z,53.60
2018-07-12T02:21:50.036Z,53.80
2018-07-12T02:24:17.309Z,54.00
2018-07-12T02:26:44.688Z,53.60
2018-07-12T02:29:11.972Z,54.10
2018-07-12T02:31:39.297Z,54.20
2018-07-12T02:34:06.612Z,54.10
2018-07-12T02:36:33.964Z,54.20
2018-07-12T02:39:01.276Z,54.40
2018-07-12T02:41:28.552Z,54.10
2018-07-12T02:43:55.796Z,54.30
2018-07-12T02:46:23.144Z,54.00
2018-07-12T02:48:50.385Z,54.10
2018-07-12T02:51:17.675Z,54.20
2018-07-12T02:56:12.600Z,54.10
2018-07-12T02:58:39.872Z,54.00
2018-07-12T03:01:07.195Z,54.00
2018-07-12T03:03:34.571Z,53.90
2018-07-12T03:06:01.863Z,54.10
2018-07-12T03:08:29.226Z,54.10
2018-07-12T03:10:56.530Z,53.90
2018-07-12T03:13:23.783Z,54.20
2018-07-12T03:18:18.552Z,54.60
2018-07-12T03:20:45.950Z,54.70
2018-07-12T03:23:13.308Z,54.50
2018-07-12T03:25:40.700Z,54.70
2018-07-12T03:28:08.096Z,54.60
2018-07-12T03:33:02.916Z,54.50
2018-07-12T03:35:30.190Z,54.80
2018-07-12T03:37:57.523Z,54.20
2018-07-12T03:40:24.819Z,54.20
2018-07-12T03:42:52.049Z,54.80
2018-07-12T03:45:19.339Z,55.00
2018-07-12T03:47:46.795Z,54.80
2018-07-12T03:50:14.268Z,55.00
2018-07-12T03:52:41.662Z,54.70
2018-07-12T03:55:08.906Z,54.60
2018-07-12T03:57:36.348Z,54.90
2018-07-12T04:00:03.624Z,54.80
2018-07-12T04:02:30.884Z,54.70
2018-07-12T04:04:58.177Z,54.80
2018-07-12T04:07:25.515Z,54.80
2018-07-12T04:09:53.608Z,54.50
2018-07-12T04:12:20.890Z,54.80
2018-07-12T04:14:48.148Z,54.80
2018-07-12T04:17:31.956Z,55.10
2018-07-12T04:20:00.376Z,55.00
2018-07-12T04:22:28.997Z,54.90
2018-07-12T04:24:56.268Z,54.80
2018-07-12T04:27:23.879Z,54.80
2018-07-12T04:29:52.420Z,54.70
2018-07-12T04:32:19.752Z,54.70
2018-07-12T04:34:47.957Z,54.90
2018-07-12T04:37:15.367Z,55.10
2018-07-12T04:39:42.842Z,55.20
2018-07-12T04:42:10.191Z,55.40
2018-07-12T04:44:37.505Z,55.40
2018-07-12T04:47:04.817Z,55.40
2018-07-12T04:49:32.095Z,55.40
2018-07-12T04:52:00.064Z,55.40
2018-07-12T04:54:27.988Z,55.40
2018-07-12T04:56:55.293Z,55.50
2018-07-12T04:59:22.804Z,55.70
2018-07-12T05:01:50.416Z,55.90
2018-07-12T05:04:17.724Z,55.80
2018-07-12T05:06:44.977Z,56.00
2018-07-12T05:09:12.269Z,55.10
2018-07-12T05:11:39.664Z,55.30
2018-07-12T05:14:06.940Z,55.30
2018-07-12T05:16:34.236Z,55.20
2018-07-12T05:19:01.686Z,55.30
2018-07-12T05:21:28.956Z,55.10
2018-07-12T05:23:56.224Z,55.40
2018-07-12T05:26:23.697Z,54.80
2018-07-12T05:31:19.097Z,54.50
2018-07-12T05:33:46.372Z,54.20
2018-07-12T05:36:22.105Z,54.20
2018-07-12T05:38:50.946Z,54.20
2018-07-12T05:41:19.355Z,54.10
2018-07-12T05:43:47.820Z,54.30
2018-07-12T05:46:16.221Z,54.00
2018-07-12T05:48:44.576Z,53.80
2018-07-12T05:51:12.911Z,53.80
2018-07-12T05:53:41.195Z,53.20
2018-07-12T05:56:09.693Z,53.10
2018-07-12T05:58:38.086Z,52.80
2018-07-12T06:01:16.521Z,52.90
2018-07-12T06:03:44.917Z,52.50
2018-07-12T06:06:13.407Z,52.10
2018-07-12T06:08:48.148Z,51.30
2018-07-12T06:11:16.642Z,51.20
2018-07-12T06:13:46.085Z,50.80
2018-07-12T06:16:14.769Z,51.30
2018-07-12T06:18:43.153Z,51.00
2018-07-12T06:21:11.535Z,50.70
2018-07-12T06:23:40.004Z,50.60
2018-07-12T06:26:08.590Z,50.70
2018-07-12T06:28:36.940Z,50.50
2018-07-12T06:31:11.820Z,50.30
2018-07-12T06:33:40.334Z,49.90
2018-07-12T06:36:08.875Z,50.00
2018-07-12T06:38:37.459Z,49.80
2018-07-12T06:41:05.980Z,50.60
2018-07-12T06:43:34.310Z,49.90
2018-07-12T06:46:02.702Z,49.70
2018-07-12T06:48:31.119Z,49.50
2018-07-12T06:50:59.583Z,49.60
2018-07-12T06:53:27.905Z,49.40
2018-07-12T06:55:56.394Z,49.10
2018-07-12T06:58:25.293Z,49.20
2018-07-12T07:00:53.607Z,48.70
2018-07-12T07:03:21.973Z,48.60
2018-07-12T07:05:50.400Z,48.70
2018-07-12T07:08:18.904Z,48.50
2018-07-12T07:10:47.247Z,48.00
2018-07-12T07:13:15.787Z,48.00
2018-07-12T07:15:44.191Z,47.60
2018-07-12T07:18:12.600Z,47.30
2018-07-12T07:20:41.018Z,47.20
2018-07-12T07:23:09.389Z,47.00
2018-07-12T07:25:37.743Z,47.00
2018-07-12T07:28:06.328Z,46.50
2018-07-12T07:30:34.664Z,46.50
2018-07-12T07:33:03.017Z,46.20
2018-07-12T07:35:31.391Z,46.30
2018-07-12T07:37:59.857Z,46.00
2018-07-12T07:40:28.169Z,45.90
2018-07-12T07:42:56.647Z,45.70
2018-07-12T07:45:24.987Z,45.40
2018-07-12T07:47:53.378Z,45.10
2018-07-12T07:50:21.931Z,44.70
2018-07-12T07:52:50.280Z,44.30
2018-07-12T07:55:18.777Z,44.30
2018-07-12T07:57:47.309Z,44.40
2018-07-12T08:00:15.878Z,44.30
2018-07-12T08:02:44.256Z,43.20
2018-07-12T08:05:12.730Z,43.00
2018-07-12T08:07:41.139Z,43.30
2018-07-12T08:10:09.662Z,42.80
2018-07-12T08:12:37.969Z,42.60
2018-07-12T08:15:06.696Z,42.50
2018-07-12T08:17:35.307Z,42.50
2018-07-12T08:20:04.109Z,42.20
2018-07-12T08:22:32.456Z,42.10
2018-07-12T08:27:28.777Z,41.80
2018-07-12T08:29:57.113Z,41.90
2018-07-12T08:32:25.521Z,42.00
2018-07-12T08:34:53.881Z,42.10
2018-07-12T08:37:22.308Z,42.10
2018-07-12T08:39:50.891Z,42.50
2018-07-12T08:42:19.356Z,42.00
2018-07-12T08:44:47.939Z,42.00
2018-07-12T08:47:16.679Z,42.10
2018-07-12T08:49:45.064Z,42.10
2018-07-12T08:52:13.681Z,42.10
2018-07-12T08:54:42.095Z,42.10
2018-07-12T08:57:10.319Z,42.00
2018-07-12T08:59:38.649Z,41.90
2018-07-12T09:02:07.144Z,41.90
2018-07-12T09:04:35.467Z,41.90
2018-07-12T09:07:03.936Z,41.50
2018-07-12T09:09:32.238Z,41.50
2018-07-12T09:12:00.564Z,41.40
2018-07-12T09:14:28.849Z,41.10
2018-07-12T09:16:57.202Z,40.90
2018-07-12T09:19:25.668Z,41.20
2018-07-12T09:21:54.053Z,40.00
2018-07-12T09:24:22.744Z,40.10
2018-07-12T09:26:51.204Z,39.80
2018-07-12T09:29:19.781Z,39.30
2018-07-12T09:31:48.128Z,39.30
2018-07-12T09:34:16.613Z,38.90
2018-07-12T09:36:45.058Z,38.60
2018-07-12T09:39:13.380Z,38.40
2018-07-12T09:41:41.772Z,37.90
2018-07-12T09:44:10.237Z,37.30
2018-07-12T09:46:38.680Z,37.40
2018-07-12T09:49:07.148Z,37.10
2018-07-12T09:51:35.452Z,37.00
2018-07-12T09:54:03.768Z,37.10
2018-07-12T09:56:43.511Z,36.60
2018-07-12T09:59:11.871Z,37.00
2018-07-12T10:01:45.663Z,37.10
2018-07-12T10:04:14.041Z,37.20
2018-07-12T10:06:47.740Z,37.30
2018-07-12T10:09:21.830Z,37.30
2018-07-12T10:11:55.705Z,37.10
2018-07-12T10:14:29.607Z,37.30
2018-07-12T10:17:03.299Z,36.30
2018-07-12T10:19:31.603Z,36.00
2018-07-12T10:21:59.995Z,35.90
2018-07-12T10:24:28.298Z,35.80
2018-07-12T10:26:56.676Z,35.50
2018-07-12T10:29:24.996Z,35.50
2018-07-12T10:31:53.429Z,35.30
2018-07-12T10:34:21.945Z,34.70
2018-07-12T10:36:50.487Z,34.50
2018-07-12T10:39:19.265Z,34.40
2018-07-12T10:41:47.603Z,34.40
2018-07-12T10:44:16.147Z,34.70
2018-07-12T10:46:44.697Z,34.50
2018-07-12T10:49:13.505Z,35.00
2018-07-12T10:51:41.923Z,34.00
2018-07-12T10:54:10.319Z,33.70
2018-07-12T10:56:38.675Z,33.60
2018-07-12T10:59:07.163Z,33.40
2018-07-12T11:01:35.466Z,33.20
2018-07-12T11:04:03.976Z,33.50
2018-07-12T11:06:32.260Z,33.50
2018-07-12T11:09:00.626Z,32.80
2018-07-12T11:11:28.928Z,32.70
2018-07-12T11:13:57.481Z,32.70
2018-07-12T11:16:26.072Z,32.70
2018-07-12T11:18:54.449Z,32.60
2018-07-12T11:21:22.939Z,32.60
2018-07-12T11:23:51.328Z,32.70
2018-07-12T11:26:20.496Z,32.90
2018-07-12T11:28:48.866Z,32.80
2018-07-12T11:31:17.227Z,33.10
2018-07-12T11:33:47.048Z,33.00
2018-07-12T11:36:15.700Z,33.30
2018-07-12T11:38:45.053Z,33.40
2018-07-12T11:41:14.179Z,33.80
2018-07-12T11:43:42.576Z,33.20
2018-07-12T11:46:12.416Z,32.90
2018-07-12T11:48:41.715Z,33.10
2018-07-12T11:51:10.256Z,33.00
2018-07-12T11:53:38.679Z,33.10
2018-07-12T11:56:07.111Z,33.00
2018-07-12T11:58:35.514Z,32.60
2018-07-12T12:01:03.949Z,32.30
2018-07-12T12:03:32.771Z,32.40
2018-07-12T12:06:01.147Z,32.30
2018-07-12T12:08:29.513Z,32.20
2018-07-12T12:10:57.848Z,32.60
2018-07-12T12:13:26.391Z,32.70
2018-07-12T12:15:55.117Z,32.50
2018-07-12T12:18:23.744Z,32.00
2018-07-12T12:20:52.233Z,31.90
2018-07-12T12:23:20.724Z,31.90
2018-07-12T12:25:49.107Z,31.50
2018-07-12T12:28:17.822Z,30.60
2018-07-12T12:30:46.339Z,30.30
2018-07-12T12:33:14.864Z,30.10
2018-07-12T12:35:43.204Z,30.00
2018-07-12T12:38:11.571Z,29.30
2018-07-12T12:40:39.856Z,28.70
2018-07-12T12:43:08.461Z,28.20
2018-07-12T12:45:36.781Z,28.30
2018-07-12T12:48:05.405Z,28.40
2018-07-12T12:50:33.935Z,28.30
2018-07-12T12:53:02.391Z,28.10
2018-07-12T12:55:30.833Z,27.70
2018-07-12T12:57:59.222Z,27.40
2018-07-12T13:00:27.548Z,27.30
2018-07-12T13:02:55.848Z,26.40
2018-07-12T13:05:24.744Z,26.60
2018-07-12T13:07:53.456Z,27.10
2018-07-12T13:10:21.767Z,27.40
2018-07-12T13:12:56.740Z,27.30
2018-07-12T13:15:25.076Z,27.60
2018-07-12T13:17:53.516Z,28.10
2018-07-12T13:20:21.895Z,28.00
2018-07-12T13:22:50.346Z,27.60
2018-07-12T13:25:18.932Z,27.40
2018-07-12T13:27:47.539Z,26.40
2018-07-12T13:30:16.012Z,25.60
2018-07-12T13:32:44.824Z,24.90
2018-07-12T13:35:13.208Z,24.40
2018-07-12T13:37:41.516Z,24.40
2018-07-12T13:40:10.001Z,24.40
2018-07-12T13:42:38.352Z,24.50
2018-07-12T13:45:06.704Z,25.00
2018-07-12T13:47:34.991Z,25.50
2018-07-12T13:50:03.323Z,25.70
2018-07-12T13:52:31.705Z,25.80
2018-07-12T13:55:00.082Z,25.10
2018-07-12T13:57:28.549Z,25.00
2018-07-12T13:59:56.943Z,24.20
2018-07-12T14:02:25.291Z,24.30
2018-07-12T14:04:53.670Z,23.80
2018-07-12T14:07:21.961Z,24.00
2018-07-12T14:09:50.584Z,23.30
2018-07-12T14:14:47.094Z,22.90
2018-07-12T14:17:16.511Z,22.90
2018-07-12T14:19:44.932Z,23.30
2018-07-12T14:22:13.312Z,23.80
2018-07-12T14:24:41.652Z,24.10
2018-07-12T14:27:10.090Z,24.30
2018-07-12T14:29:38.400Z,24.80
2018-07-12T14:32:06.728Z,25.30
2018-07-12T14:34:35.159Z,25.80
2018-07-12T14:37:03.514Z,26.00
2018-07-12T14:39:31.836Z,26.50
2018-07-12T14:42:00.164Z,26.80
2018-07-12T14:44:28.531Z,26.70
2018-07-12T14:46:56.992Z,27.30
2018-07-12T14:49:25.239Z,27.50
2018-07-12T14:51:53.591Z,27.40
2018-07-12T14:54:21.908Z,27.40
2018-07-12T14:56:50.332Z,27.70
2018-07-12T14:59:18.906Z,27.70
2018-07-12T15:01:47.381Z,27.50
2018-07-12T15:04:15.888Z,28.30
2018-07-12T15:06:45.691Z,28.00
2018-07-12T15:09:14.098Z,28.00
2018-07-12T15:11:42.335Z,28.50
2018-07-12T15:14:10.648Z,28.80
2018-07-12T15:16:39.079Z,28.20
2018-07-12T15:19:07.401Z,28.60
2018-07-12T15:21:35.792Z,29.00
2018-07-12T15:24:04.176Z,29.30
2018-07-12T15:26:32.545Z,29.40
2018-07-12T15:29:00.855Z,29.50
2018-07-12T15:31:29.280Z,29.40
2018-07-12T15:33:57.627Z,29.70
2018-07-12T15:36:26.092Z,29.80
2018-07-12T15:38:54.426Z,29.70
2018-07-12T15:41:22.828Z,29.90
2018-07-12T15:43:51.165Z,29.40
2018-07-12T15:46:19.781Z,29.60
2018-07-12T15:48:48.199Z,30.00
2018-07-12T15:51:16.644Z,29.70
2018-07-12T15:53:45.227Z,30.10
2018-07-12T15:56:13.835Z,30.20
2018-07-12T15:58:42.255Z,30.20
2018-07-12T16:01:10.640Z,30.10
2018-07-12T16:03:39.051Z,30.30
2018-07-12T16:06:07.425Z,30.40
2018-07-12T16:08:35.940Z,30.60
2018-07-12T16:11:04.245Z,30.40
2018-07-12T16:13:32.639Z,30.60
2018-07-12T16:16:01.070Z,31.30
2018-07-12T16:18:29.362Z,30.80
2018-07-12T16:20:57.727Z,30.60
2018-07-12T16:23:26.052Z,30.70
2018-07-12T16:25:54.348Z,31.40
2018-07-12T16:28:22.751Z,30.90
2018-07-12T16:30:51.087Z,30.60
2018-07-12T16:33:19.462Z,31.00
2018-07-12T16:35:48.057Z,31.20
2018-07-12T16:38:16.782Z,31.30
2018-07-12T16:40:45.295Z,31.30
2018-07-12T16:43:13.696Z,31.40
2018-07-12T16:45:42.004Z,31.40
2018-07-12T16:48:10.317Z,30.90
2018-07-12T16:50:38.759Z,31.40
2018-07-12T16:53:07.125Z,31.40
2018-07-12T16:55:35.531Z,31.60
2018-07-12T16:58:03.918Z,31.30
2018-07-12T17:00:32.359Z,31.80
2018-07-12T17:03:00.711Z,31.40
2018-07-12T17:05:29.055Z,31.60
2018-07-12T17:07:57.378Z,31.60
2018-07-12T17:10:25.691Z,31.70
2018-07-12T17:12:54.413Z,31.70
2018-07-12T17:15:22.884Z,31.80
2018-07-12T17:17:51.436Z,31.80
2018-07-12T17:20:19.831Z,31.80
2018-07-12T17:22:48.583Z,31.80
2018-07-12T17:25:17.210Z,32.00
2018-07-12T17:27:45.867Z,31.90
2018-07-12T17:30:14.657Z,31.90
2018-07-12T17:32:42.990Z,32.00
2018-07-12T17:35:11.312Z,32.10
2018-07-12T17:37:39.704Z,31.90
2018-07-12T17:40:08.385Z,32.00
2018-07-12T17:42:36.876Z,32.00
2018-07-12T17:45:05.326Z,32.30
2018-07-12T17:47:33.708Z,32.30
2018-07-12T17:50:02.009Z,32.20
2018-07-12T17:52:30.405Z,32.30
2018-07-12T17:54:58.693Z,32.90
2018-07-12T17:57:27.098Z,32.90
2018-07-12T17:59:55.588Z,32.50
2018-07-12T18:02:23.899Z,32.40
2018-07-12T18:04:52.481Z,32.80
2018-07-12T18:07:21.021Z,32.30
2018-07-12T18:09:49.528Z,32.50
2018-07-12T18:12:17.874Z,32.50
2018-07-12T19:36:44.171Z,32.40
2018-07-12T19:39:12.538Z,39.20
2018-07-12T19:41:41.006Z,38.50
2018-07-12T19:44:09.371Z,38.60
2018-07-12T19:46:37.858Z,38.30
2018-07-12T19:49:06.508Z,37.90
2018-07-12T19:51:35.401Z,37.90
2018-07-12T19:54:03.832Z,38.40
2018-07-12T19:56:32.748Z,39.00
2018-07-12T19:59:01.219Z,38.20
2018-07-12T20:01:29.541Z,38.30
